Time;durP1;ratioP1;P1;durP2;ratioP2;P2;SDS_P1;SDS_P2;PMS_P1;PMS_P2;Temp;Humidity;BMP_temperature;BMP_pressure;BME280_temperature;BME280_humidity;BME280_pressure;Samples;Min_cycle;Max_cycle;Signal;HPM_P1;HPM_P2
2022/04/21 00:00:32;;;;;;;;;8.50;6.50;;;;;16.69;30.21;100371.31;4998832;28;45457;-49
2022/04/21 00:02:58;;;;;;;;;8.25;7.00;;;;;16.72;30.19;100374.38;4998364;28;45224;-50
2022/04/21 00:05:23;;;;;;;;;7.50;6.00;;;;;16.68;30.33;100373.22;4998505;28;46284;-48
2022/04/21 00:07:49;;;;;;;;;7.00;7.00;;;;;16.55;29.79;100352.34;4997055;28;45756;-48
2022/04/21 00:10:15;;;;;;;;;5.50;4.25;;;;;16.58;30.34;100373.97;4998492;28;45339;-52
2022/04/21 00:12:41;;;;;;;;;8.00;7.20;;;;;16.52;29.80;100364.78;4997336;28;45347;-48
2022/04/21 00:15:07;;;;;;;;;8.00;7.50;;;;;16.48;30.25;100365.53;5030255;28;45418;-47
2022/04/21 00:17:33;;;;;;;;;7.80;7.80;;;;;16.52;29.98;100358.38;5013497;28;45406;-48
2022/04/21 00:19:59;;;;;;;;;8.00;6.50;;;;;16.25;30.60;100334.28;4998298;28;45413;-48
2022/04/21 00:25:09;;;;;;;;;5.00;5.00;;;;;16.25;30.75;100353.66;4998234;28;45421;-49
2022/04/21 00:27:41;;;;;;;;;9.00;8.75;;;;;16.35;30.78;100358.50;4998193;28;45319;-48
2022/04/21 00:30:07;;;;;;;;;7.60;7.60;;;;;16.28;31.12;100364.25;5030063;28;45574;-51
2022/04/21 00:32:40;;;;;;;;;8.00;8.00;;;;;16.22;31.20;100359.75;4998438;28;45437;-50
2022/04/21 00:35:06;;;;;;;;;6.40;6.40;;;;;15.62;31.53;100257.16;4997771;28;46227;-49
2022/04/21 00:37:32;;;;;;;;;8.60;8.00;;;;;15.99;31.33;100298.00;4997895;28;45541;-48
2022/04/21 00:39:57;;;;;;;;;6.00;5.50;;;;;16.31;31.27;100344.31;4998266;28;45358;-48
2022/04/21 00:42:23;;;;;;;;;7.00;7.00;;;;;16.18;31.54;100320.66;5029530;28;45546;-48
2022/04/21 00:44:51;;;;;;;;;6.50;6.50;;;;;16.20;31.56;100339.75;4998063;28;45362;-51
2022/04/21 00:47:18;;;;;;;;;8.00;7.00;;;;;16.07;31.90;100341.84;4997274;28;45291;-48
2022/04/21 00:49:47;;;;;;;;;8.00;7.00;;;;;15.81;31.93;100313.00;5013360;28;45326;-51
2022/04/21 00:52:13;;;;;;;;;5.00;5.00;;;;;15.87;32.25;100339.63;4997703;28;45437;-48
2022/04/21 00:54:38;;;;;;;;;6.60;6.60;;;;;15.85;32.01;100342.66;5029274;28;46470;-48
2022/04/21 00:57:04;;;;;;;;;9.00;7.00;;;;;15.82;32.38;100337.66;4995984;28;45501;-49
2022/04/21 00:59:30;;;;;;;;;9.75;9.00;;;;;15.88;32.00;100338.53;5012664;28;45412;-48
2022/04/21 01:04:39;;;;;;;;;7.60;7.40;;;;;15.72;31.76;100324.53;5024575;28;45395;-50
2022/04/21 01:07:14;;;;;;;;;8.25;7.00;;;;;15.71;32.26;100319.25;5029442;28;45461;-47
2022/04/21 01:09:39;;;;;;;;;8.60;8.00;;;;;15.50;32.76;100287.69;5027007;28;45435;-48
2022/04/21 01:12:08;;;;;;;;;10.50;10.00;;;;;15.62;32.63;100323.56;4997697;28;45385;-50
2022/04/21 01:14:37;;;;;;;;;8.00;6.60;;;;;15.62;32.81;100323.56;4996768;28;45550;-50
2022/04/21 01:17:03;;;;;;;;;10.20;9.20;;;;;15.56;33.19;100322.63;4997465;28;45449;-48
2022/04/21 01:19:28;;;;;;;;;7.00;7.00;;;;;15.60;32.45;100312.75;4989221;28;45453;-49
2022/04/21 01:21:54;;;;;;;;;8.50;6.50;;;;;15.45;32.40;100313.34;5006205;28;45613;-49
2022/04/21 01:24:19;;;;;;;;;7.75;7.75;;;;;14.89;33.16;100234.91;5012554;28;46175;-47
2022/04/21 01:26:46;;;;;;;;;9.00;6.00;;;;;15.36;32.88;100306.59;5030212;28;45423;-50
2022/04/21 01:29:12;;;;;;;;;8.60;8.00;;;;;15.37;33.16;100322.09;5023263;28;45960;-47
2022/04/21 01:31:38;;;;;;;;;7.00;7.00;;;;;15.41;32.79;100317.72;4999680;28;45206;-48
2022/04/21 01:34:03;;;;;;;;;6.80;6.80;;;;;15.49;33.10;100319.22;5016570;28;47536;-50
2022/04/21 01:36:29;;;;;;;;;7.75;7.75;;;;;15.26;33.30;100286.00;5016732;28;45261;-51
2022/04/21 01:41:38;;;;;;;;;7.60;6.40;;;;;15.40;33.01;100314.13;5016778;28;45314;-50
2022/04/21 01:44:03;;;;;;;;;7.25;7.25;;;;;15.46;32.77;100312.25;5016685;28;45374;-49
2022/04/21 01:46:29;;;;;;;;;7.25;7.25;;;;;15.53;33.19;100310.16;5016348;28;45345;-48
2022/04/21 01:48:55;;;;;;;;;10.75;8.00;;;;;15.12;32.77;100252.38;5016257;28;45333;-49
2022/04/21 01:51:20;;;;;;;;;9.25;7.25;;;;;15.39;33.40;100303.31;5017075;28;45247;-50
2022/04/21 01:53:46;;;;;;;;;6.75;6.00;;;;;15.19;32.99;100266.00;5015050;28;45950;-51
2022/04/21 01:56:12;;;;;;;;;11.00;7.00;;;;;15.36;32.83;100304.66;5016279;28;45418;-49
2022/04/21 01:58:37;;;;;;;;;6.50;6.00;;;;;15.23;32.63;100297.59;5015473;28;45431;-48
2022/04/21 02:01:03;;;;;;;;;8.50;7.50;;;;;15.27;33.18;100304.25;5016559;28;45366;-49
2022/04/21 02:03:30;;;;;;;;;8.00;6.25;;;;;15.24;33.15;100296.47;5016472;28;45951;-49
2022/04/21 02:05:56;;;;;;;;;5.80;5.40;;;;;15.34;33.12;100297.72;5015917;28;45429;-48
2022/04/21 02:08:22;;;;;;;;;6.00;6.00;;;;;15.37;32.92;100295.28;5016725;28;45290;-48
2022/04/21 02:10:47;;;;;;;;;8.75;6.75;;;;;15.25;32.58;100286.25;5016314;28;45287;-47
2022/04/21 02:13:13;;;;;;;;;8.00;7.50;;;;;15.16;32.61;100291.41;5015922;28;45482;-47
2022/04/21 02:15:38;;;;;;;;;7.75;7.75;;;;;15.14;32.98;100290.78;5016182;28;45782;-51
2022/04/21 02:18:04;;;;;;;;;7.75;6.25;;;;;14.79;33.23;100240.28;5016227;28;45406;-51
2022/04/21 02:20:30;;;;;;;;;6.50;6.50;;;;;14.97;33.20;100264.03;5016180;27;45826;-48
2022/04/21 02:22:55;;;;;;;;;8.75;6.00;;;;;15.20;32.91;100292.53;5014431;28;46288;-48
2022/04/21 02:25:21;;;;;;;;;7.50;7.00;;;;;14.92;33.61;100250.13;5016082;28;45239;-49
2022/04/21 02:27:48;;;;;;;;;6.00;6.00;;;;;14.99;33.18;100255.50;5015871;28;45489;-49
2022/04/21 02:30:15;;;;;;;;;6.00;6.00;;;;;15.07;32.61;100268.88;5015598;28;45429;-49
2022/04/21 02:32:40;;;;;;;;;8.40;8.00;;;;;14.93;33.09;100267.56;5016053;28;45762;-48
2022/04/21 02:35:09;;;;;;;;;8.00;8.00;;;;;14.94;33.72;100267.28;5015375;28;45425;-47
2022/04/21 02:37:38;;;;;;;;;6.60;6.60;;;;;14.95;33.30;100259.84;4989760;28;45538;-48
2022/04/21 02:40:05;;;;;;;;;6.00;6.00;;;;;14.91;33.04;100248.47;5015803;28;45376;-50
2022/04/21 02:42:30;;;;;;;;;6.60;6.60;;;;;14.94;32.89;100259.00;5015645;28;48016;-48
2022/04/21 02:44:56;;;;;;;;;8.00;7.75;;;;;14.93;32.97;100262.84;4997805;28;45420;-47
2022/04/21 02:47:21;;;;;;;;;6.75;6.75;;;;;14.85;33.22;100247.56;5015616;28;45521;-48
2022/04/21 02:49:47;;;;;;;;;8.00;7.00;;;;;14.94;33.18;100259.00;5014874;28;45543;-47
2022/04/21 02:52:12;;;;;;;;;9.25;8.25;;;;;14.87;32.74;100258.34;5014330;28;45517;-48
2022/04/21 02:57:23;;;;;;;;;6.60;6.60;;;;;14.81;33.32;100257.44;5015584;28;45307;-49
2022/04/21 02:59:53;;;;;;;;;7.00;6.50;;;;;14.84;32.80;100253.31;4997862;28;45347;-51
2022/04/21 03:02:18;;;;;;;;;11.20;9.00;;;;;14.84;33.23;100259.69;5015571;28;46527;-48
2022/04/21 03:04:44;;;;;;;;;7.25;7.00;;;;;14.79;32.96;100250.47;5014242;28;45537;-50
2022/04/21 03:07:10;;;;;;;;;9.00;9.00;;;;;14.80;32.65;100252.16;5015529;28;45381;-50
2022/04/21 03:09:35;;;;;;;;;5.75;5.75;;;;;14.81;33.14;100254.66;5015641;28;45421;-48
2022/04/21 03:12:02;;;;;;;;;5.50;5.50;;;;;14.26;33.63;100165.97;5015490;28;46501;-49
2022/04/21 03:14:27;;;;;;;;;9.60;7.00;;;;;14.84;33.87;100254.16;5015478;28;45250;-50
2022/04/21 03:16:53;;;;;;;;;6.50;6.50;;;;;14.88;33.40;100251.72;5014439;28;45171;-48
2022/04/21 03:19:18;;;;;;;;;7.00;7.00;;;;;14.93;33.00;100245.47;5015574;28;45141;-51
2022/04/21 03:24:29;;;;;;;;;9.00;8.00;;;;;14.75;33.21;100223.38;5014913;28;45456;-50
2022/04/21 03:26:55;;;;;;;;;10.20;7.80;;;;;14.63;33.13;100231.69;5015359;28;45391;-51
2022/04/21 03:29:21;;;;;;;;;8.00;7.25;;;;;14.52;33.71;100232.66;5015297;28;45532;-50
2022/04/21 03:31:48;;;;;;;;;9.20;8.60;;;;;14.48;33.79;100210.19;5013937;28;45608;-49
2022/04/21 03:34:14;;;;;;;;;8.40;8.40;;;;;14.64;33.32;100235.31;5014976;28;45391;-48
2022/04/21 03:36:49;;;;;;;;;6.80;6.80;;;;;14.58;33.87;100226.09;5013685;28;45364;-48
2022/04/21 03:39:16;;;;;;;;;7.20;7.00;;;;;14.54;33.50;100222.19;5013751;28;45408;-53
2022/04/21 03:41:41;;;;;;;;;8.00;8.00;;;;;14.47;33.54;100218.75;5014962;28;46377;-49
2022/04/21 03:44:07;;;;;;;;;3.50;2.50;;;;;14.44;34.37;100236.66;5015419;28;45449;-47
2022/04/21 03:46:32;;;;;;;;;10.75;10.75;;;;;14.41;34.13;100242.66;5014666;28;45319;-49
2022/04/21 03:48:58;;;;;;;;;7.25;6.50;;;;;14.40;33.70;100234.66;5014116;28;45553;-50
2022/04/21 03:51:25;;;;;;;;;10.50;6.75;;;;;14.37;33.37;100227.69;5014640;28;46278;-50
2022/04/21 03:53:51;;;;;;;;;9.40;6.60;;;;;14.35;33.98;100233.47;5014753;28;45357;-49
2022/04/21 03:56:17;;;;;;;;;9.25;9.25;;;;;14.39;33.72;100236.56;5014930;28;45879;-46
2022/04/21 03:58:42;;;;;;;;;7.75;7.00;;;;;14.32;33.30;100236.72;5014561;28;45464;-49
2022/04/21 04:01:08;;;;;;;;;10.50;6.75;;;;;14.16;33.66;100227.34;5014539;28;45610;-55
2022/04/21 04:03:34;;;;;;;;;7.00;7.00;;;;;14.15;33.62;100225.66;5013104;28;45423;-49
2022/04/21 04:05:59;;;;;;;;;12.50;10.75;;;;;14.19;34.07;100232.34;5014735;28;45458;-49
2022/04/21 04:11:10;;;;;;;;;10.80;9.80;;;;;14.17;34.26;100242.81;5014331;28;45814;-48
2022/04/21 04:13:35;;;;;;;;;7.80;7.80;;;;;14.21;33.90;100241.22;5014325;28;45495;-47
2022/04/21 04:16:01;;;;;;;;;8.25;7.50;;;;;13.58;33.66;100139.13;5014655;28;45422;-51
2022/04/21 04:18:28;;;;;;;;;10.25;8.25;;;;;14.19;33.91;100226.00;5014794;28;45515;-47
2022/04/21 04:20:54;;;;;;;;;10.20;9.20;;;;;14.23;33.54;100238.22;5014505;28;46451;-49
2022/04/21 04:23:20;;;;;;;;;12.00;10.50;;;;;14.19;33.74;100232.34;5017587;28;45356;-49
2022/04/21 04:25:46;;;;;;;;;11.00;9.60;;;;;14.12;34.11;100231.69;5016192;28;45781;-48
2022/04/21 04:28:11;;;;;;;;;9.00;8.25;;;;;14.13;33.97;100224.25;5003162;28;45512;-50
2022/04/21 04:30:40;;;;;;;;;11.25;7.50;;;;;14.17;33.60;100229.00;5012702;28;45804;-49
2022/04/21 04:33:08;;;;;;;;;13.40;7.80;;;;;14.21;33.76;100234.88;4998695;28;45429;-49
2022/04/21 04:35:34;;;;;;;;;6.00;6.00;;;;;14.19;33.60;100232.34;5016824;28;45319;-48
2022/04/21 04:37:59;;;;;;;;;9.50;6.25;;;;;14.17;33.69;100244.72;5017539;28;45481;-48
2022/04/21 04:40:28;;;;;;;;;11.00;11.00;;;;;14.17;33.51;100245.56;5017527;28;45258;-53
2022/04/21 04:42:54;;;;;;;;;7.40;7.40;;;;;14.14;33.93;100251.56;5017183;28;45520;-49
2022/04/21 04:48:04;;;;;;;;;11.00;11.00;;;;;14.04;33.91;100251.41;5017128;28;45332;-50
2022/04/21 04:50:30;;;;;;;;;10.75;9.75;;;;;13.99;33.94;100254.06;5049425;28;47074;-48
2022/04/21 04:52:59;;;;;;;;;17.25;12.00;;;;;14.00;33.93;100264.00;5015827;28;45428;-50
2022/04/21 04:55:25;;;;;;;;;10.80;10.80;;;;;14.01;33.79;100258.25;5017408;28;45354;-48
2022/04/21 04:57:51;;;;;;;;;8.80;7.00;;;;;14.11;34.08;100260.38;5015838;28;45300;-47
2022/04/21 05:00:17;;;;;;;;;9.75;9.75;;;;;13.95;34.13;100242.69;5017029;28;45487;-48
2022/04/21 05:02:44;;;;;;;;;7.80;7.00;;;;;14.13;33.45;100254.59;5017047;28;45343;-47
2022/04/21 05:05:11;;;;;;;;;9.60;7.40;;;;;14.12;33.59;100264.78;5017408;28;45501;-47
2022/04/21 05:07:39;;;;;;;;;10.20;7.00;;;;;14.01;34.18;100262.91;5017517;28;45420;-49
2022/04/21 05:10:08;;;;;;;;;10.00;10.00;;;;;13.75;33.76;100237.59;5016850;28;45791;-49
2022/04/21 05:12:34;;;;;;;;;14.40;10.00;;;;;13.89;34.32;100262.97;5016937;28;45479;-50
2022/04/21 05:14:59;;;;;;;;;13.50;11.50;;;;;13.87;34.21;100263.22;5017148;28;45336;-53
2022/04/21 05:17:26;;;;;;;;;10.50;10.50;;;;;13.91;34.48;100263.56;5016108;28;45599;-50
2022/04/21 05:19:54;;;;;;;;;12.00;10.00;;;;;13.75;34.62;100256.91;5016714;28;46181;-49
2022/04/21 05:22:21;;;;;;;;;13.00;10.80;;;;;13.60;34.34;100233.44;5016881;28;45433;-47
2022/04/21 05:24:47;;;;;;;;;10.00;10.00;;;;;13.79;34.77;100267.22;4999491;28;45453;-48
2022/04/21 05:27:13;;;;;;;;;11.00;8.75;;;;;13.81;34.42;100266.94;5015557;28;45334;-49
2022/04/21 05:32:23;;;;;;;;;12.60;9.40;;;;;13.51;35.42;100241.25;5016368;28;45361;-47
2022/04/21 05:34:48;;;;;;;;;8.75;8.75;;;;;13.65;35.05;100266.66;4982728;28;45382;-47
2022/04/21 05:37:14;;;;;;;;;11.00;10.00;;;;;13.69;34.83;100264.25;5016471;28;45484;-46
2022/04/21 05:39:40;;;;;;;;;11.25;10.75;;;;;13.79;35.24;100266.38;5015603;28;47755;-48
2022/04/21 05:42:06;;;;;;;;;13.00;12.00;;;;;13.77;35.05;100258.34;5016458;28;45487;-49
2022/04/21 05:44:32;;;;;;;;;12.75;10.00;;;;;13.76;35.19;100253.09;5015364;28;45553;-50
2022/04/21 05:46:57;;;;;;;;;11.00;11.00;;;;;13.45;35.17;100222.91;5016880;28;45484;-48
2022/04/21 05:49:24;;;;;;;;;16.50;11.75;;;;;13.61;35.11;100231.53;5016241;28;46568;-48
2022/04/21 05:51:51;;;;;;;;;13.20;10.40;;;;;13.57;35.44;100230.34;5016543;28;45314;-50
2022/04/21 05:54:17;;;;;;;;;11.60;11.60;;;;;13.64;35.40;100253.09;5015207;28;45408;-49
2022/04/21 05:56:43;;;;;;;;;13.25;12.75;;;;;13.66;35.40;100257.28;5016500;28;45268;-51
2022/04/21 05:59:08;;;;;;;;;12.50;12.25;;;;;13.60;36.22;100255.50;5015932;28;45742;-48
2022/04/21 06:01:34;;;;;;;;;11.00;10.75;;;;;13.61;35.54;100251.66;5015614;28;45584;-51
2022/04/21 06:04:00;;;;;;;;;10.00;8.80;;;;;13.62;36.26;100249.75;5016318;28;45536;-52
2022/04/21 06:06:25;;;;;;;;;12.75;10.75;;;;;13.67;35.64;100245.19;5016103;28;45377;-49
2022/04/21 06:08:51;;;;;;;;;15.50;11.75;;;;;13.72;35.91;100249.13;5014827;28;45463;-50
2022/04/21 06:11:17;;;;;;;;;12.00;12.00;;;;;13.69;35.76;100244.94;5014494;28;45319;-47
2022/04/21 06:13:42;;;;;;;;;13.25;12.50;;;;;13.73;35.48;100239.78;5015785;28;45349;-53
2022/04/21 06:16:08;;;;;;;;;13.00;11.25;;;;;13.78;35.84;100248.16;5016339;28;45641;-47
2022/04/21 06:18:35;;;;;;;;;11.75;11.00;;;;;13.82;35.78;100241.03;5015516;28;45276;-48
2022/04/21 06:21:00;;;;;;;;;15.20;15.20;;;;;13.77;35.35;100239.03;4997977;28;45425;-49
2022/04/21 06:23:26;;;;;;;;;9.75;9.75;;;;;13.89;35.97;100244.50;5013331;28;45355;-51
2022/04/21 06:25:58;;;;;;;;;13.75;11.50;;;;;13.91;35.85;100244.25;4993441;28;45892;-50
2022/04/21 06:28:24;;;;;;;;;7.60;7.60;;;;;13.94;35.58;100246.53;5015295;28;46715;-49
2022/04/21 06:30:50;;;;;;;;;10.40;10.40;;;;;13.96;35.74;100242.44;5015404;28;45205;-49
2022/04/21 06:33:15;;;;;;;;;16.50;12.50;;;;;14.06;35.85;100247.31;5015838;28;45617;-48
2022/04/21 06:35:41;;;;;;;;;12.50;12.50;;;;;14.11;35.26;100246.56;5014291;28;45385;-50
2022/04/21 06:38:07;;;;;;;;;12.25;12.25;;;;;14.16;35.72;100243.91;5015410;28;46844;-49
2022/04/21 06:40:33;;;;;;;;;9.40;6.20;;;;;14.17;35.68;100240.06;5015142;28;45516;-49
2022/04/21 06:43:02;;;;;;;;;9.75;9.50;;;;;14.23;35.43;100243.72;5014359;28;45372;-51
2022/04/21 06:48:13;;;;;;;;;11.00;9.80;;;;;14.20;35.58;100235.97;5014274;28;45895;-49
2022/04/21 06:50:39;;;;;;;;;12.25;11.25;;;;;14.06;35.66;100199.56;5015265;28;45374;-48
2022/04/21 06:53:06;;;;;;;;;11.20;11.20;;;;;14.28;35.51;100238.31;5015366;28;45340;-49
2022/04/21 06:55:31;;;;;;;;;15.00;13.20;;;;;14.29;35.51;100231.69;5015542;28;45636;-53
2022/04/21 06:57:57;;;;;;;;;13.25;12.00;;;;;14.25;35.47;100232.44;5015014;28;46615;-50
2022/04/21 07:00:24;;;;;;;;;11.75;11.75;;;;;14.01;35.49;100200.31;5014485;28;45377;-48
2022/04/21 07:02:54;;;;;;;;;13.60;13.20;;;;;14.13;35.27;100222.31;4997724;28;45476;-49
2022/04/21 07:05:19;;;;;;;;;17.00;15.60;;;;;14.12;35.87;100220.63;5015834;28;45247;-50
2022/04/21 07:07:45;;;;;;;;;16.00;13.75;;;;;14.21;35.53;100232.13;5014933;28;46007;-49
2022/04/21 07:10:11;;;;;;;;;12.50;11.50;;;;;14.10;35.70;100217.31;5015500;28;45327;-49
2022/04/21 07:12:36;;;;;;;;;14.20;12.80;;;;;14.22;36.09;100229.13;5014330;28;45531;-48
2022/04/21 07:15:04;;;;;;;;;11.25;11.25;;;;;14.07;35.67;100226.91;5015407;28;45310;-48
2022/04/21 07:17:30;;;;;;;;;9.00;5.20;;;;;13.92;36.28;100230.22;5013701;28;45740;-50
2022/04/21 07:19:56;;;;;;;;;10.75;10.75;;;;;13.34;36.57;100119.88;5013724;28;45461;-48
2022/04/21 07:22:25;;;;;;;;;17.80;15.40;;;;;13.85;36.35;100193.66;5014250;28;45413;-48
2022/04/21 07:24:51;;;;;;;;;13.00;12.20;;;;;14.01;36.36;100214.09;5015023;28;45567;-48
2022/04/21 07:27:17;;;;;;;;;9.80;9.80;;;;;13.86;36.71;100189.00;5014950;28;47116;-49
2022/04/21 07:29:42;;;;;;;;;12.00;12.00;;;;;14.13;36.12;100216.78;4973935;28;45567;-49
2022/04/21 07:32:08;;;;;;;;;13.25;11.75;;;;;13.85;36.56;100166.09;4992431;28;45413;-50
2022/04/21 07:34:34;;;;;;;;;13.20;10.60;;;;;14.10;36.61;100204.31;5003499;28;45523;-49
2022/04/21 07:37:00;;;;;;;;;14.50;12.00;;;;;14.21;36.38;100218.31;5010254;28;46576;-48
2022/04/21 07:39:25;;;;;;;;;15.00;14.50;;;;;14.07;36.70;100190.19;5010624;28;45785;-52
2022/04/21 07:41:51;;;;;;;;;11.00;11.00;;;;;14.22;36.62;100212.56;5010803;28;45358;-49
2022/04/21 07:44:17;;;;;;;;;16.25;14.25;;;;;14.27;36.73;100206.28;5011275;28;45504;-47
2022/04/21 07:46:43;;;;;;;;;21.75;18.00;;;;;14.37;36.96;100209.19;4999195;28;46293;-48
2022/04/21 07:53:13;;;;;;;;;16.80;12.60;;;;;14.16;36.92;100172.16;5012063;28;45417;-48
2022/04/21 07:54:38;;;;;;;;;14.20;12.80;;;;;14.44;36.91;100219.22;5030796;28;45728;-48
2022/04/21 07:57:04;;;;;;;;;17.25;13.50;;;;;14.42;36.46;100211.22;5016173;28;45596;-44
2022/04/21 07:59:30;;;;;;;;;14.25;13.00;;;;;14.40;36.75;100210.63;5012199;28;45538;-47
2022/04/21 08:01:56;;;;;;;;;14.00;14.00;;;;;14.52;36.81;100212.47;5013851;28;45504;-50
2022/04/21 08:04:22;;;;;;;;;13.60;12.60;;;;;14.57;36.40;100212.56;5016854;28;45558;-49
2022/04/21 08:06:48;;;;;;;;;12.50;12.25;;;;;14.53;37.00;100186.53;5032812;28;47344;-49
2022/04/21 08:09:14;;;;;;;;;11.60;9.80;;;;;14.79;36.14;100212.66;5025198;28;45471;-49
2022/04/21 08:11:39;;;;;;;;;8.75;7.00;;;;;14.83;36.53;100197.22;5016466;28;45697;-48
2022/04/21 08:14:05;;;;;;;;;14.75;12.25;;;;;14.91;35.96;100212.53;4991926;28;45563;-50
2022/04/21 08:16:32;;;;;;;;;13.50;11.75;;;;;14.78;35.52;100172.28;5028780;28;45888;-50
2022/04/21 08:18:59;;;;;;;;;12.20;11.60;;;;;15.03;35.79;100213.28;5033477;28;45459;-49
2022/04/21 08:21:25;;;;;;;;;17.20;13.20;;;;;15.03;36.02;100216.03;5013498;28;45644;-49
2022/04/21 08:23:51;;;;;;;;;18.40;15.40;;;;;15.05;36.15;100218.53;5013138;28;46010;-50
2022/04/21 08:34:29;;;;;;;;;12.60;12.20;;;;;15.14;36.22;100218.94;5013320;28;45552;-47
2022/04/21 08:36:55;;;;;;;;;17.20;14.20;;;;;15.24;36.42;100212.69;5013145;28;45513;-51
2022/04/21 08:39:21;;;;;;;;;15.75;13.75;;;;;15.24;36.01;100199.72;5017298;28;45330;-48
2022/04/21 08:41:49;;;;;;;;;15.25;14.25;;;;;15.18;35.92;100178.63;5031809;28;45406;-47
2022/04/21 08:44:19;;;;;;;;;15.40;13.60;;;;;15.46;35.64;100212.72;5014106;28;45574;-49
2022/04/21 08:46:46;;;;;;;;;19.40;14.20;;;;;15.47;35.83;100203.31;5021561;27;46138;-49
2022/04/21 08:49:13;;;;;;;;;14.80;13.60;;;;;15.59;35.92;100209.53;5015241;28;45446;-50
2022/04/21 08:51:38;;;;;;;;;19.00;17.80;;;;;15.60;35.95;100210.41;5019019;28;45528;-50
2022/04/21 08:54:05;;;;;;;;;16.25;12.00;;;;;15.59;35.88;100212.31;5031531;28;45575;-51
2022/04/21 08:56:31;;;;;;;;;15.60;10.00;;;;;15.71;35.39;100211.34;5031995;28;46105;-49
2022/04/21 08:58:56;;;;;;;;;15.25;14.00;;;;;15.73;35.38;100206.38;5031174;28;45765;-48
2022/04/21 09:01:22;;;;;;;;;12.50;12.50;;;;;15.89;34.86;100210.16;5032565;28;45365;-49
2022/04/21 09:03:48;;;;;;;;;11.00;11.00;;;;;15.95;35.30;100206.38;5020110;28;45544;-48
2022/04/21 09:06:13;;;;;;;;;14.40;13.00;;;;;15.85;35.09;100179.41;5030701;28;46149;-48
2022/04/21 09:08:39;;;;;;;;;12.50;9.75;;;;;16.13;34.63;100213.47;5032110;28;45450;-50
2022/04/21 09:11:09;;;;;;;;;15.00;15.00;;;;;16.17;34.99;100204.66;5031386;28;45349;-49
2022/04/21 09:13:36;;;;;;;;;17.60;15.60;;;;;16.25;34.93;100213.31;5030489;28;45436;-48
2022/04/21 09:16:03;;;;;;;;;15.20;12.00;;;;;16.31;35.04;100205.88;5016626;28;46688;-48
2022/04/21 09:18:39;;;;;;;;;17.40;14.40;;;;;16.36;34.87;100205.06;5029558;28;45595;-51
2022/04/21 09:21:16;;;;;;;;;16.60;14.40;;;;;16.13;35.11;100132.38;5036195;28;45413;-47
2022/04/21 09:23:45;;;;;;;;;8.60;8.00;;;;;16.59;34.36;100195.56;5036569;28;45297;-48
2022/04/21 09:26:15;;;;;;;;;14.60;13.60;;;;;16.67;33.75;100192.28;5012577;28;47508;-49
2022/04/21 09:28:41;;;;;;;;;16.40;10.80;;;;;16.80;33.97;100195.69;5004987;28;45438;-46
2022/04/21 09:31:08;;;;;;;;;17.50;13.00;;;;;16.80;33.56;100198.47;5015316;28;45350;-48
2022/04/21 09:33:34;;;;;;;;;14.00;11.40;;;;;16.85;33.07;100198.50;5016405;28;45548;-47
2022/04/21 09:36:01;;;;;;;;;13.40;11.40;;;;;16.93;33.28;100198.00;5015613;28;45474;-49
2022/04/21 09:38:26;;;;;;;;;10.80;10.60;;;;;16.73;33.26;100148.00;5015127;28;45467;-49
2022/04/21 09:40:52;;;;;;;;;11.00;11.00;;;;;16.96;33.31;100190.28;5014473;28;45418;-48
2022/04/21 09:43:28;;;;;;;;;13.00;11.50;;;;;16.96;33.21;100179.19;5035201;28;45415;-46
2022/04/21 09:46:09;;;;;;;;;12.60;12.60;;;;;16.98;32.67;100179.75;5035975;28;45945;-46
2022/04/21 09:48:34;;;;;;;;;13.60;13.60;;;;;17.09;32.95;100188.97;5032190;27;45870;-46
2022/04/21 09:51:13;;;;;;;;;12.50;12.00;;;;;16.88;33.49;100138.94;5034700;28;45662;-50
2022/04/21 09:54:02;;;;;;;;;14.00;11.40;;;;;17.21;32.99;100175.72;5034406;28;45376;-48
2022/04/21 09:56:31;;;;;;;;;12.20;11.20;;;;;17.28;32.28;100175.50;5035950;28;46619;-48
2022/04/21 09:58:56;;;;;;;;;16.80;12.60;;;;;17.30;32.67;100173.28;5028877;28;45448;-49
2022/04/21 10:01:22;;;;;;;;;13.75;13.75;;;;;17.33;32.78;100167.16;4998130;28;45799;-47
2022/04/21 10:03:47;;;;;;;;;12.50;12.50;;;;;17.34;31.79;100168.84;5009945;28;45598;-51
2022/04/21 10:06:13;;;;;;;;;12.75;12.50;;;;;17.33;31.91;100162.47;5022946;28;46369;-50
2022/04/21 10:08:41;;;;;;;;;13.75;13.00;;;;;17.22;31.91;100141.34;5034405;28;45429;-47
2022/04/21 10:11:08;;;;;;;;;12.00;11.00;;;;;17.40;31.89;100158.59;5035883;28;45396;-48
2022/04/21 10:13:34;;;;;;;;;15.20;14.00;;;;;17.22;31.23;100121.94;5035981;28;45575;-46
2022/04/21 10:15:59;;;;;;;;;15.40;13.20;;;;;17.51;31.30;100152.00;5034728;28;45566;-48
2022/04/21 10:18:25;;;;;;;;;14.50;12.50;;;;;17.43;30.65;100124.75;5015152;28;45365;-49
2022/04/21 10:20:55;;;;;;;;;12.50;12.00;;;;;17.64;30.98;100135.91;5017532;28;45396;-48
2022/04/21 10:23:21;;;;;;;;;16.00;13.00;;;;;17.81;30.88;100138.44;5035666;28;45333;-51
2022/04/21 10:25:47;;;;;;;;;12.80;12.80;;;;;17.82;30.01;100134.56;5033841;28;45426;-47
2022/04/21 10:28:34;;;;;;;;;14.00;12.25;;;;;17.91;30.14;100141.22;5017666;28;45369;-49
2022/04/21 10:31:28;;;;;;;;;11.20;11.20;;;;;18.00;30.38;100133.19;5033085;28;45397;-50
2022/04/21 10:33:56;;;;;;;;;14.20;13.20;;;;;18.06;30.31;100120.16;5035348;28;45338;-53
2022/04/21 10:36:35;;;;;;;;;13.20;13.20;;;;;18.18;29.96;100137.38;5017615;28;46018;-50
2022/04/21 10:39:10;;;;;;;;;13.00;12.80;;;;;18.23;29.86;100115.16;5034785;28;45311;-48
2022/04/21 10:41:36;;;;;;;;;12.40;12.40;;;;;18.33;29.44;100130.16;5034303;28;45430;-50
2022/04/21 10:44:02;;;;;;;;;15.00;12.25;;;;;18.39;29.01;100118.78;5032673;28;45408;-48
2022/04/21 10:46:29;;;;;;;;;13.60;11.80;;;;;18.52;29.44;100127.63;5033482;28;45480;-51
2022/04/21 10:48:55;;;;;;;;;14.60;13.80;;;;;18.62;28.99;100121.22;5026312;27;45396;-50
2022/04/21 10:57:12;;;;;;;;;14.00;12.75;;;;;18.69;29.30;100121.78;5035028;28;45500;-48
2022/04/21 10:57:33;;;;;;;;;11.00;11.00;;;;;18.61;29.45;100086.22;5034943;28;45630;-48
2022/04/21 11:00:03;;;;;;;;;15.00;14.40;;;;;18.64;28.99;100088.44;5010327;28;45385;-48
2022/04/21 11:02:42;;;;;;;;;14.00;14.00;;;;;18.84;28.43;100109.78;5012463;28;45476;-48
2022/04/21 11:05:22;;;;;;;;;15.20;15.20;;;;;18.90;28.34;100110.59;5014880;28;45456;-51
2022/04/21 11:07:52;;;;;;;;;12.00;11.80;;;;;18.96;28.84;100101.91;5027673;28;45701;-45
2022/04/21 11:10:36;;;;;;;;;12.40;10.60;;;;;19.06;28.74;100101.06;5032512;28;45439;-46
2022/04/21 11:13:02;;;;;;;;;15.60;11.80;;;;;19.04;28.03;100083.00;5034665;28;45444;-48
2022/04/21 11:15:34;;;;;;;;;10.50;9.50;;;;;19.29;27.89;100109.03;5033874;28;45485;-47
2022/04/21 11:18:01;;;;;;;;;13.40;12.20;;;;;19.38;27.69;100099.00;5021746;28;46111;-47
2022/04/21 11:20:27;;;;;;;;;15.00;13.40;;;;;19.29;27.02;100070.94;5012664;28;45373;-47
2022/04/21 11:22:53;;;;;;;;;13.00;12.75;;;;;19.51;27.12;100089.16;5013947;28;45670;-48
2022/04/21 11:25:18;;;;;;;;;14.00;13.75;;;;;19.55;27.20;100068.00;4995994;28;45632;-51
2022/04/21 11:27:45;;;;;;;;;16.50;13.00;;;;;19.67;26.98;100075.13;4979809;28;45454;-49
2022/04/21 11:30:14;;;;;;;;;15.00;12.60;;;;;19.70;26.91;100074.56;5015387;28;45488;-49
2022/04/21 11:32:47;;;;;;;;;14.60;13.20;;;;;19.72;27.53;100059.25;5017962;28;45617;-47
2022/04/21 11:35:13;;;;;;;;;11.00;11.00;;;;;19.86;26.77;100072.50;5017723;28;45395;-50
2022/04/21 11:37:56;;;;;;;;;13.40;12.00;;;;;19.89;26.37;100072.75;5017928;28;45414;-46
2022/04/21 11:40:22;;;;;;;;;12.60;10.60;;;;;20.01;25.99;100066.81;5017986;28;45272;-47
2022/04/21 11:42:49;;;;;;;;;15.00;11.00;;;;;20.10;25.23;100074.53;5018758;28;45416;-52
2022/04/21 11:45:25;;;;;;;;;15.40;12.00;;;;;20.17;26.06;100070.28;5018579;28;45531;-46
2022/04/21 11:47:51;;;;;;;;;9.80;9.60;;;;;20.23;26.10;100059.91;5017310;28;46547;-49
2022/04/21 11:50:24;;;;;;;;;13.25;12.25;;;;;20.24;26.10;100060.75;5018364;28;45430;-49
2022/04/21 11:52:53;;;;;;;;;14.00;11.40;;;;;20.30;25.31;100056.81;5018312;28;45361;-48
2022/04/21 11:55:22;;;;;;;;;13.60;12.80;;;;;20.31;25.74;100062.09;5018801;28;45588;-47